Time;durP1;ratioP1;P1;durP2;ratioP2;P2;SDS_P1;SDS_P2;PMS_P1;PMS_P2;Temp;Humidity;BMP_temperature;BMP_pressure;BME280_temperature;BME280_humidity;BME280_pressure;Samples;Min_cycle;Max_cycle;Signal;HPM_P1;HPM_P2
2023/01/11 00:00:24;;;;;;;7.38;5.63;;;;;;;;;;5088235;28;20043;-75
2023/01/11 00:03:10;;;;;;;6.70;5.45;;;;;;;;;;5102474;28;20103;-74
2023/01/11 00:05:56;;;;;;;8.10;5.25;;;;;;;;;;5103429;28;20034;-76
2023/01/11 00:08:42;;;;;;;6.20;4.93;;;;;;;;;;5117699;28;20016;-75
2023/01/11 00:11:27;;;;;;;5.60;4.80;;;;;;;;;;5102854;28;20019;-75
2023/01/11 00:14:14;;;;;;;6.32;5.00;;;;;;;;;;5102283;28;20094;-76
2023/01/11 00:16:59;;;;;;;6.10;5.00;;;;;;;;;;5117179;28;20019;-76
2023/01/11 00:19:45;;;;;;;5.65;4.82;;;;;;;;;;5101879;28;20340;-76
2023/01/11 00:22:30;;;;;;;5.90;4.50;;;;;;;;;;5115606;28;20023;-76
2023/01/11 00:25:16;;;;;;;5.55;4.78;;;;;;;;;;5102634;28;20019;-76
2023/01/11 00:28:02;;;;;;;6.18;4.70;;;;;;;;;;5101033;28;20451;-76
2023/01/11 00:30:48;;;;;;;7.80;6.22;;;;;;;;;;5116382;28;20029;-75
2023/01/11 00:33:33;;;;;;;9.85;8.52;;;;;;;;;;5116035;28;20019;-74
2023/01/11 00:36:20;;;;;;;12.77;10.07;;;;;;;;;;5101782;28;20179;-75
2023/01/11 00:39:05;;;;;;;31.00;23.00;;;;;;;;;;5102059;28;20398;-75
2023/01/11 00:48:00;;;;;;;17.20;12.68;;;;;;;;;;5116619;28;20061;-75
2023/01/11 00:50:45;;;;;;;15.15;11.38;;;;;;;;;;5115024;28;20027;-75
2023/01/11 00:53:31;;;;;;;12.00;9.32;;;;;;;;;;5101716;28;20024;-74
2023/01/11 00:56:16;;;;;;;11.43;8.50;;;;;;;;;;5115850;28;20047;-76
2023/01/11 00:59:03;;;;;;;10.80;8.27;;;;;;;;;;5115759;28;20402;-75
2023/01/11 01:01:49;;;;;;;10.73;7.88;;;;;;;;;;5100918;28;20058;-75
2023/01/11 01:04:34;;;;;;;10.73;8.18;;;;;;;;;;5115762;28;20023;-74
2023/01/11 01:07:20;;;;;;;15.23;9.38;;;;;;;;;;5101174;28;20023;-75
2023/01/11 01:10:06;;;;;;;15.25;10.63;;;;;;;;;;5115476;28;20161;-75
2023/01/11 01:15:57;;;;;;;13.82;10.70;;;;;;;;;;5115775;28;20447;-75
2023/01/11 01:18:43;;;;;;;15.95;11.20;;;;;;;;;;5100349;28;20088;-75
2023/01/11 01:21:36;;;;;;;11.20;8.45;;;;;;;;;;5115655;28;20028;-75
2023/01/11 01:24:22;;;;;;;11.50;6.90;;;;;;;;;;5115612;28;20039;-75
2023/01/11 01:27:07;;;;;;;7.97;5.85;;;;;;;;;;5115332;28;20077;-75
2023/01/11 01:29:53;;;;;;;6.88;5.35;;;;;;;;;;5101228;28;20033;-76
2023/01/11 01:32:39;;;;;;;5.93;4.97;;;;;;;;;;5115578;28;20020;-76
2023/01/11 01:35:24;;;;;;;6.28;5.40;;;;;;;;;;5115132;28;20023;-75
2023/01/11 01:38:10;;;;;;;7.20;5.50;;;;;;;;;;5115699;28;20058;-75
2023/01/11 01:40:55;;;;;;;5.93;4.65;;;;;;;;;;5086306;28;20030;-76
2023/01/11 01:43:44;;;;;;;6.13;5.07;;;;;;;;;;5115083;28;20084;-75
2023/01/11 01:46:31;;;;;;;6.05;5.13;;;;;;;;;;5101103;28;20023;-75
2023/01/11 01:49:16;;;;;;;5.82;4.68;;;;;;;;;;5114357;28;20094;-75
2023/01/11 01:52:02;;;;;;;6.63;5.22;;;;;;;;;;5100587;28;20024;-76
2023/01/11 01:54:48;;;;;;;7.25;5.68;;;;;;;;;;5100809;28;20020;-74
2023/01/11 01:57:36;;;;;;;6.85;5.60;;;;;;;;;;5115217;28;20083;-74
2023/01/11 02:00:21;;;;;;;8.55;6.53;;;;;;;;;;5115524;28;20050;-75
2023/01/11 02:03:09;;;;;;;7.32;5.45;;;;;;;;;;5114975;28;20028;-75
2023/01/11 02:05:55;;;;;;;6.93;5.40;;;;;;;;;;5114890;28;20028;-74
2023/01/11 02:08:43;;;;;;;7.03;4.32;;;;;;;;;;5100117;28;20008;-75
2023/01/11 02:11:28;;;;;;;5.40;4.13;;;;;;;;;;5114419;28;20432;-75
2023/01/11 02:14:16;;;;;;;7.15;5.10;;;;;;;;;;5115156;28;20059;-75
2023/01/11 02:17:01;;;;;;;6.30;5.13;;;;;;;;;;5100755;28;20107;-75
2023/01/11 02:19:47;;;;;;;6.65;5.35;;;;;;;;;;5099729;28;20027;-75
2023/01/11 02:22:39;;;;;;;5.60;4.40;;;;;;;;;;5118264;28;20055;-76
2023/01/11 02:25:34;;;;;;;6.57;5.15;;;;;;;;;;5104640;28;20080;-76
2023/01/11 02:28:19;;;;;;;6.97;5.15;;;;;;;;;;5119141;28;20041;-76
2023/01/11 02:31:05;;;;;;;8.00;5.32;;;;;;;;;;5118424;28;20019;-76
2023/01/11 02:34:04;;;;;;;7.57;5.10;;;;;;;;;;5118568;28;20012;-76
2023/01/11 02:36:57;;;;;;;5.68;5.07;;;;;;;;;;5118900;28;20030;-76
2023/01/11 02:39:43;;;;;;;6.57;4.97;;;;;;;;;;5118489;28;20034;-75
2023/01/11 02:45:58;;;;;;;7.68;4.90;;;;;;;;;;5119376;28;20393;-76
2023/01/11 02:48:51;;;;;;;11.43;6.43;;;;;;;;;;5103313;28;20032;-76
2023/01/11 02:51:40;;;;;;;9.32;6.15;;;;;;;;;;5104050;28;20022;-75
2023/01/11 02:54:25;;;;;;;10.90;7.22;;;;;;;;;;5118128;28;20016;-76
2023/01/11 02:57:12;;;;;;;11.23;7.40;;;;;;;;;;5118818;28;20011;-76
2023/01/11 02:59:59;;;;;;;12.50;9.23;;;;;;;;;;5118003;28;20023;-76
2023/01/11 03:02:44;;;;;;;9.40;7.43;;;;;;;;;;5117675;28;20440;-75
2023/01/11 03:05:30;;;;;;;11.70;8.85;;;;;;;;;;5103079;28;20344;-75
2023/01/11 03:08:24;;;;;;;11.43;8.65;;;;;;;;;;5117691;28;20026;-75
2023/01/11 03:11:13;;;;;;;12.90;8.60;;;;;;;;;;5117414;28;20015;-76
2023/01/11 03:14:03;;;;;;;10.90;8.13;;;;;;;;;;5103360;28;20015;-75
2023/01/11 03:17:05;;;;;;;11.77;8.73;;;;;;;;;;5117891;28;20020;-73
2023/01/11 03:19:52;;;;;;;14.55;9.25;;;;;;;;;;5102690;28;20030;-75
2023/01/11 03:22:37;;;;;;;12.40;8.13;;;;;;;;;;5116993;28;20090;-75
2023/01/11 03:25:42;;;;;;;12.20;7.72;;;;;;;;;;5117215;28;20027;-75
2023/01/11 03:28:27;;;;;;;15.95;9.93;;;;;;;;;;5118264;28;20084;-75
2023/01/11 03:31:16;;;;;;;16.13;10.32;;;;;;;;;;5103587;28;20062;-74
2023/01/11 03:34:20;;;;;;;11.57;8.48;;;;;;;;;;5117931;28;20028;-76
2023/01/11 03:37:23;;;;;;;8.38;6.60;;;;;;;;;;5118020;28;20080;-75
2023/01/11 03:40:27;;;;;;;13.27;10.05;;;;;;;;;;5118100;28;20047;-75
2023/01/11 03:43:14;;;;;;;16.20;10.95;;;;;;;;;;5117342;28;20039;-76
2023/01/11 03:46:03;;;;;;;16.08;11.60;;;;;;;;;;5102312;28;20035;-77
2023/01/11 03:48:58;;;;;;;14.90;10.45;;;;;;;;;;5116611;28;20007;-75
2023/01/11 03:51:46;;;;;;;16.58;11.88;;;;;;;;;;5118040;28;20030;-76
2023/01/11 03:54:32;;;;;;;20.13;15.02;;;;;;;;;;5102145;28;20016;-75
2023/01/11 03:57:21;;;;;;;20.23;15.25;;;;;;;;;;5117547;28;20380;-75
2023/01/11 04:00:07;;;;;;;22.00;14.98;;;;;;;;;;5103307;28;20039;-75
2023/01/11 04:02:53;;;;;;;17.05;13.15;;;;;;;;;;5117647;28;20106;-76
2023/01/11 04:05:42;;;;;;;12.75;9.50;;;;;;;;;;5118213;28;20027;-75
2023/01/11 04:08:29;;;;;;;11.32;8.50;;;;;;;;;;5101951;28;20118;-76
2023/01/11 04:11:15;;;;;;;9.88;7.22;;;;;;;;;;5117693;28;20418;-75
2023/01/11 04:14:01;;;;;;;9.38;6.50;;;;;;;;;;5103330;28;20019;-76
2023/01/11 04:16:46;;;;;;;7.97;6.15;;;;;;;;;;5102582;28;20028;-77
2023/01/11 04:19:32;;;;;;;7.78;6.38;;;;;;;;;;5116501;28;20016;-77
2023/01/11 04:22:17;;;;;;;8.55;6.28;;;;;;;;;;5116641;28;20352;-74
2023/01/11 04:25:03;;;;;;;7.85;5.68;;;;;;;;;;5116243;28;20035;-75
2023/01/11 04:27:49;;;;;;;8.43;6.07;;;;;;;;;;5101893;28;20016;-75
2023/01/11 04:30:35;;;;;;;9.55;7.25;;;;;;;;;;5115615;28;20023;-76
2023/01/11 04:33:20;;;;;;;10.98;7.30;;;;;;;;;;5102139;28;20419;-73
2023/01/11 04:36:07;;;;;;;9.63;6.85;;;;;;;;;;5101765;28;20099;-74
2023/01/11 04:38:53;;;;;;;11.65;8.05;;;;;;;;;;5116140;28;20027;-75
2023/01/11 04:44:42;;;;;;;18.13;12.40;;;;;;;;;;5115711;28;20114;-76
2023/01/11 04:47:28;;;;;;;15.63;11.18;;;;;;;;;;5116249;28;20016;-73
2023/01/11 04:50:13;;;;;;;19.17;13.52;;;;;;;;;;5099883;28;20046;-74
2023/01/11 04:52:59;;;;;;;16.60;12.18;;;;;;;;;;5115589;28;20107;-74
2023/01/11 04:55:45;;;;;;;17.17;12.38;;;;;;;;;;5116208;28;20027;-74
2023/01/11 04:58:31;;;;;;;17.95;12.38;;;;;;;;;;5115816;28;20016;-73
2023/01/11 05:01:17;;;;;;;14.02;10.05;;;;;;;;;;5116082;28;20043;-74
2023/01/11 05:04:03;;;;;;;12.52;9.02;;;;;;;;;;5115602;28;20024;-72
2023/01/11 05:06:49;;;;;;;13.93;9.80;;;;;;;;;;5101617;28;20031;-75
2023/01/11 05:09:34;;;;;;;13.95;9.65;;;;;;;;;;5115967;28;20023;-75
2023/01/11 05:12:20;;;;;;;14.75;10.15;;;;;;;;;;5101976;28;20024;-75
2023/01/11 05:15:06;;;;;;;13.07;8.77;;;;;;;;;;5102902;28;20110;-74
2023/01/11 05:17:54;;;;;;;12.55;7.97;;;;;;;;;;5115888;28;20508;-75
2023/01/11 05:20:40;;;;;;;17.40;10.35;;;;;;;;;;5117866;28;20057;-76
2023/01/11 05:23:26;;;;;;;21.92;13.05;;;;;;;;;;5120986;28;20366;-74
2023/01/11 05:26:13;;;;;;;12.05;8.35;;;;;;;;;;5134180;28;20088;-75
2023/01/11 05:28:59;;;;;;;10.80;7.75;;;;;;;;;;5126002;28;20043;-77
2023/01/11 05:31:45;;;;;;;10.60;7.78;;;;;;;;;;5117135;27;20015;-76
2023/01/11 05:34:31;;;;;;;10.45;7.40;;;;;;;;;;5103393;28;20076;-76
2023/01/11 05:37:16;;;;;;;11.13;8.00;;;;;;;;;;5117748;28;20035;-75
2023/01/11 05:40:02;;;;;;;14.15;9.43;;;;;;;;;;5129830;28;20024;-76
2023/01/11 05:42:48;;;;;;;13.32;9.38;;;;;;;;;;5103353;28;20016;-77
2023/01/11 05:45:35;;;;;;;15.18;10.70;;;;;;;;;;5115377;28;20031;-76
2023/01/11 05:48:21;;;;;;;18.90;11.85;;;;;;;;;;5115246;28;20044;-76
2023/01/11 05:51:07;;;;;;;14.23;10.07;;;;;;;;;;5115910;28;20046;-76
2023/01/11 05:53:53;;;;;;;17.67;11.77;;;;;;;;;;5115084;28;20110;-75
2023/01/11 05:56:39;;;;;;;15.13;10.05;;;;;;;;;;5117343;28;20331;-76
2023/01/11 05:59:25;;;;;;;20.38;13.40;;;;;;;;;;5104122;28;20027;-77
2023/01/11 06:02:11;;;;;;;17.40;12.30;;;;;;;;;;5104073;28;20038;-76
2023/01/11 06:04:56;;;;;;;14.43;9.75;;;;;;;;;;5104107;28;20028;-76
2023/01/11 06:07:42;;;;;;;16.08;9.88;;;;;;;;;;5119373;28;20034;-76
2023/01/11 06:10:27;;;;;;;21.60;14.20;;;;;;;;;;5119334;28;20448;-76
2023/01/11 06:13:25;;;;;;;19.80;13.25;;;;;;;;;;5104736;28;20023;-76
2023/01/11 06:16:20;;;;;;;16.70;11.50;;;;;;;;;;5118460;28;20098;-76
2023/01/11 06:19:05;;;;;;;12.23;8.85;;;;;;;;;;5118460;28;20055;-77
2023/01/11 06:21:51;;;;;;;15.05;9.52;;;;;;;;;;5104157;28;20341;-77
2023/01/11 06:24:36;;;;;;;12.55;7.80;;;;;;;;;;5104036;28;20015;-77
2023/01/11 06:27:22;;;;;;;10.93;6.57;;;;;;;;;;5119105;28;20027;-77
2023/01/11 06:30:08;;;;;;;11.15;7.43;;;;;;;;;;5104486;28;20020;-77
2023/01/11 06:32:53;;;;;;;11.63;7.50;;;;;;;;;;5103785;28;20030;-76
2023/01/11 06:35:40;;;;;;;11.07;7.13;;;;;;;;;;5118519;28;20495;-76
2023/01/11 06:38:25;;;;;;;13.05;8.48;;;;;;;;;;5118796;28;20055;-76
2023/01/11 06:41:11;;;;;;;16.25;9.20;;;;;;;;;;5119704;28;20372;-76
2023/01/11 06:43:57;;;;;;;12.88;8.32;;;;;;;;;;5121505;28;20030;-77
2023/01/11 06:46:42;;;;;;;12.35;8.13;;;;;;;;;;5104591;28;20463;-76
2023/01/11 06:49:28;;;;;;;13.15;8.57;;;;;;;;;;5118737;28;20026;-76
2023/01/11 06:52:13;;;;;;;11.93;7.05;;;;;;;;;;5103310;28;20447;-80
2023/01/11 06:54:59;;;;;;;10.07;6.60;;;;;;;;;;5118783;28;20089;-78
2023/01/11 06:57:45;;;;;;;9.35;6.45;;;;;;;;;;5103391;28;20111;-76
2023/01/11 07:00:32;;;;;;;9.82;7.07;;;;;;;;;;5117131;28;20048;-76
2023/01/11 07:03:19;;;;;;;7.00;5.60;;;;;;;;;;5118391;28;20037;-76
2023/01/11 07:06:04;;;;;;;16.52;10.65;;;;;;;;;;5102771;28;20080;-76
2023/01/11 07:08:50;;;;;;;21.00;13.68;;;;;;;;;;5117014;28;20016;-76
2023/01/11 07:11:38;;;;;;;12.00;7.97;;;;;;;;;;5118885;28;20080;-76
2023/01/11 07:14:23;;;;;;;12.73;7.45;;;;;;;;;;5117056;28;20062;-77
2023/01/11 07:17:09;;;;;;;12.10;7.95;;;;;;;;;;5103130;28;20034;-75
2023/01/11 07:19:55;;;;;;;12.48;9.00;;;;;;;;;;5102865;28;20024;-76
2023/01/11 07:22:40;;;;;;;11.82;8.82;;;;;;;;;;5116693;28;20019;-76
2023/01/11 07:25:27;;;;;;;14.63;9.88;;;;;;;;;;5117581;28;20028;-76
2023/01/11 07:28:12;;;;;;;15.10;9.93;;;;;;;;;;5103067;28;20377;-77
2023/01/11 07:30:58;;;;;;;16.40;9.30;;;;;;;;;;5102494;28;20020;-76
2023/01/11 07:33:43;;;;;;;20.00;12.55;;;;;;;;;;5116933;28;20016;-75
2023/01/11 07:36:29;;;;;;;24.60;14.98;;;;;;;;;;5117076;28;20019;-78
2023/01/11 07:39:15;;;;;;;50.72;30.60;;;;;;;;;;5117694;28;20390;-76
2023/01/11 07:45:05;;;;;;;25.98;17.13;;;;;;;;;;5117032;28;20439;-76
2023/01/11 07:47:51;;;;;;;23.88;13.23;;;;;;;;;;5102768;28;20423;-76
2023/01/11 07:50:38;;;;;;;16.38;9.52;;;;;;;;;;5116286;28;20023;-77
2023/01/11 07:53:26;;;;;;;22.15;10.35;;;;;;;;;;5116549;28;20027;-77
2023/01/11 07:56:12;;;;;;;13.10;8.35;;;;;;;;;;5116235;28;20099;-79
2023/01/11 07:58:57;;;;;;;14.65;8.60;;;;;;;;;;5117053;28;20023;-75
2023/01/11 08:01:43;;;;;;;12.13;7.30;;;;;;;;;;5116221;28;20460;-76
2023/01/11 08:04:28;;;;;;;10.38;6.63;;;;;;;;;;5116772;28;20102;-76
2023/01/11 08:07:14;;;;;;;11.25;6.80;;;;;;;;;;5116523;28;20020;-77
2023/01/11 08:10:00;;;;;;;10.93;6.18;;;;;;;;;;5117467;28;20076;-77
2023/01/11 08:15:50;;;;;;;13.25;8.20;;;;;;;;;;5118679;28;20051;-77
2023/01/11 08:18:36;;;;;;;11.63;7.43;;;;;;;;;;5100519;28;20035;-77
2023/01/11 08:21:22;;;;;;;13.18;8.40;;;;;;;;;;5116515;28;20027;-77
2023/01/11 08:24:07;;;;;;;12.88;7.10;;;;;;;;;;5116930;28;20407;-76
2023/01/11 08:26:53;;;;;;;10.85;7.13;;;;;;;;;;5102306;28;20090;-77
2023/01/11 08:29:39;;;;;;;11.27;6.70;;;;;;;;;;5116743;28;20051;-75
2023/01/11 08:32:26;;;;;;;9.63;6.43;;;;;;;;;;5115820;28;20019;-77
2023/01/11 08:35:12;;;;;;;9.27;6.45;;;;;;;;;;5116008;28;20019;-76
2023/01/11 08:37:58;;;;;;;10.52;7.32;;;;;;;;;;5102377;28;20031;-77
2023/01/11 08:40:43;;;;;;;9.93;7.15;;;;;;;;;;5116344;28;20015;-77
2023/01/11 08:43:32;;;;;;;10.90;7.47;;;;;;;;;;5116098;28;20352;-77
2023/01/11 08:46:17;;;;;;;10.95;6.97;;;;;;;;;;5100719;28;20027;-77
2023/01/11 08:49:03;;;;;;;11.32;7.43;;;;;;;;;;5101743;28;20020;-76
2023/01/11 08:51:50;;;;;;;12.27;7.65;;;;;;;;;;5115806;28;20180;-78
2023/01/11 08:54:36;;;;;;;11.23;6.93;;;;;;;;;;5116736;28;20456;-77
2023/01/11 08:57:21;;;;;;;11.00;7.25;;;;;;;;;;5102554;28;20024;-79
2023/01/11 09:00:07;;;;;;;11.20;7.78;;;;;;;;;;5117220;28;20054;-78
2023/01/11 09:02:53;;;;;;;9.80;6.35;;;;;;;;;;5116704;28;20452;-78
2023/01/11 09:05:39;;;;;;;9.18;6.32;;;;;;;;;;5101319;28;20024;-78
2023/01/11 09:08:25;;;;;;;8.40;5.65;;;;;;;;;;5101226;28;20351;-79
2023/01/11 09:14:16;;;;;;;10.88;7.57;;;;;;;;;;5115725;28;20332;-79
2023/01/11 09:17:01;;;;;;;11.15;7.80;;;;;;;;;;5117010;28;20028;-78
2023/01/11 09:19:47;;;;;;;14.02;8.77;;;;;;;;;;5103006;28;20110;-78
2023/01/11 09:22:33;;;;;;;11.55;7.60;;;;;;;;;;5101178;28;20047;-78
2023/01/11 09:25:19;;;;;;;13.27;8.68;;;;;;;;;;5116188;28;20019;-78
2023/01/11 09:28:04;;;;;;;13.30;8.32;;;;;;;;;;5116660;28;20340;-79
2023/01/11 09:30:51;;;;;;;15.52;9.23;;;;;;;;;;5100362;28;20083;-79
2023/01/11 09:33:38;;;;;;;15.35;9.88;;;;;;;;;;5118016;28;20020;-78
2023/01/11 09:36:25;;;;;;;15.93;10.00;;;;;;;;;;5100839;28;20447;-78
2023/01/11 09:39:14;;;;;;;16.73;10.45;;;;;;;;;;5101788;28;20055;-79
2023/01/11 09:42:04;;;;;;;16.30;10.50;;;;;;;;;;5122509;28;20111;-79
2023/01/11 09:45:01;;;;;;;21.80;12.50;;;;;;;;;;5115211;28;20024;-77
2023/01/11 09:47:50;;;;;;;17.60;11.70;;;;;;;;;;5099428;28;20432;-79
2023/01/11 09:50:40;;;;;;;17.30;11.10;;;;;;;;;;5100707;28;20069;-79
2023/01/11 09:53:33;;;;;;;16.88;10.45;;;;;;;;;;5099029;28;20012;-78
2023/01/11 09:56:23;;;;;;;17.40;11.02;;;;;;;;;;5114487;28;20027;-78
2023/01/11 09:59:33;;;;;;;16.17;10.80;;;;;;;;;;5100402;28;20443;-77
2023/01/11 10:02:37;;;;;;;20.90;11.18;;;;;;;;;;5094125;28;20410;-77
2023/01/11 10:05:41;;;;;;;18.20;11.70;;;;;;;;;;5094169;28;20031;-77
2023/01/11 10:08:39;;;;;;;18.05;11.38;;;;;;;;;;5094531;28;20032;-77
2023/01/11 10:11:43;;;;;;;17.25;11.40;;;;;;;;;;5094760;28;20099;-77
2023/01/11 10:14:49;;;;;;;18.50;10.55;;;;;;;;;;5095140;28;20020;-78
2023/01/11 10:17:45;;;;;;;16.58;9.88;;;;;;;;;;5051055;28;20045;-77
2023/01/11 10:20:36;;;;;;;14.48;10.02;;;;;;;;;;5080528;28;20106;-77
2023/01/11 10:23:28;;;;;;;15.85;9.52;;;;;;;;;;5081655;28;20028;-77
2023/01/11 10:26:23;;;;;;;16.30;10.15;;;;;;;;;;5079606;28;20046;-77
2023/01/11 10:35:42;;;;;;;18.60;11.68;;;;;;;;;;5093951;28;20357;-80
2023/01/11 10:38:26;;;;;;;15.30;9.75;;;;;;;;;;5093433;28;20012;-76
2023/01/11 10:41:32;;;;;;;13.15;9.02;;;;;;;;;;5094960;28;20020;-78
2023/01/11 10:44:29;;;;;;;13.10;9.05;;;;;;;;;;5085112;28;20338;-77
2023/01/11 10:47:18;;;;;;;13.27;8.98;;;;;;;;;;5098509;28;20020;-77
2023/01/11 10:50:15;;;;;;;13.80;9.65;;;;;;;;;;5096920;28;20024;-78
2023/01/11 10:53:06;;;;;;;15.95;9.88;;;;;;;;;;5097550;28;20360;-76
2023/01/11 10:56:04;;;;;;;15.68;9.80;;;;;;;;;;5082859;28;20082;-77
2023/01/11 10:59:03;;;;;;;16.33;10.85;;;;;;;;;;5096934;28;20046;-77
2023/01/11 11:01:55;;;;;;;14.88;8.90;;;;;;;;;;5100377;28;20073;-77
2023/01/11 11:04:41;;;;;;;13.95;8.93;;;;;;;;;;5118035;28;20020;-77
2023/01/11 11:07:33;;;;;;;13.35;9.18;;;;;;;;;;5103766;28;20020;-77
2023/01/11 11:10:37;;;;;;;15.73;9.30;;;;;;;;;;5118568;28;20015;-76
2023/01/11 11:13:26;;;;;;;15.32;9.23;;;;;;;;;;5103342;28;20019;-76
2023/01/11 11:16:11;;;;;;;16.35;9.90;;;;;;;;;;5103087;28;20035;-76
2023/01/11 11:18:57;;;;;;;16.00;10.18;;;;;;;;;;5103086;28;20020;-77
2023/01/11 11:21:43;;;;;;;14.93;9.70;;;;;;;;;;5102393;28;20393;-77
2023/01/11 11:24:37;;;;;;;14.70;9.98;;;;;;;;;;5117505;28;20458;-78
2023/01/11 11:27:26;;;;;;;18.13;10.32;;;;;;;;;;5102719;28;20161;-76
2023/01/11 11:30:12;;;;;;;18.58;10.63;;;;;;;;;;5118881;28;20098;-76
2023/01/11 11:33:04;;;;;;;17.45;10.88;;;;;;;;;;5119910;28;20012;-76
2023/01/11 11:35:57;;;;;;;24.13;12.15;;;;;;;;;;5102968;28;20030;-77
2023/01/11 11:39:01;;;;;;;19.60;10.82;;;;;;;;;;5119786;28;20020;-77
2023/01/11 11:42:03;;;;;;;20.65;11.38;;;;;;;;;;5104608;28;20034;-77
2023/01/11 11:45:04;;;;;;;19.20;10.73;;;;;;;;;;5102406;28;20024;-77
2023/01/11 11:48:00;;;;;;;19.52;11.75;;;;;;;;;;5102000;28;20425;-77
2023/01/11 11:50:47;;;;;;;19.55;10.73;;;;;;;;;;5103108;28;20027;-77
2023/01/11 11:53:42;;;;;;;19.77;12.23;;;;;;;;;;5116696;28;20020;-77
2023/01/11 11:56:29;;;;;;;24.80;14.00;;;;;;;;;;5116721;28;20027;-76
2023/01/11 11:59:18;;;;;;;21.52;12.65;;;;;;;;;;5103115;28;20431;-77
2023/01/11 12:02:04;;;;;;;25.52;13.27;;;;;;;;;;5116499;28;20109;-77
2023/01/11 12:04:52;;;;;;;30.20;13.95;;;;;;;;;;5101784;28;20035;-76
2023/01/11 12:07:45;;;;;;;26.83;13.80;;;;;;;;;;5116815;28;20012;-77
2023/01/11 12:10:31;;;;;;;30.77;15.18;;;;;;;;;;5117542;28;20031;-77
2023/01/11 12:13:27;;;;;;;35.15;15.32;;;;;;;;;;5117303;28;20020;-78
2023/01/11 12:16:20;;;;;;;40.03;16.77;;;;;;;;;;5101696;28;20392;-77
2023/01/11 12:19:25;;;;;;;31.10;15.85;;;;;;;;;;5117901;28;20041;-77
2023/01/11 12:22:23;;;;;;;30.45;14.77;;;;;;;;;;5115537;28;20400;-77
2023/01/11 12:25:14;;;;;;;34.35;15.15;;;;;;;;;;5117376;28;20035;-78
2023/01/11 12:28:00;;;;;;;30.73;14.48;;;;;;;;;;5117645;28;20023;-78
2023/01/11 12:30:54;;;;;;;35.20;14.68;;;;;;;;;;5107540;28;20043;-78
2023/01/11 12:33:50;;;;;;;32.78;14.98;;;;;;;;;;5109876;28;20020;-77
2023/01/11 12:36:56;;;;;;;29.60;15.25;;;;;;;;;;5128114;28;20114;-78
2023/01/11 12:39:51;;;;;;;35.33;16.15;;;;;;;;;;5113879;28;20059;-77
2023/01/11 12:42:45;;;;;;;29.15;13.82;;;;;;;;;;5115615;28;20388;-77
2023/01/11 12:45:31;;;;;;;37.47;15.10;;;;;;;;;;5103692;28;20181;-77
2023/01/11 12:48:20;;;;;;;26.10;12.27;;;;;;;;;;5112216;28;20019;-77
2023/01/11 12:51:08;;;;;;;18.40;9.43;;;;;;;;;;5113797;28;20012;-77
2023/01/11 12:53:57;;;;;;;12.60;6.30;;;;;;;;;;5108254;28;20455;-77
2023/01/11 12:57:01;;;;;;;5.65;3.30;;;;;;;;;;5124342;28;20024;-77
2023/01/11 12:59:57;;;;;;;6.65;3.83;;;;;;;;;;5113207;28;20118;-77
2023/01/11 13:02:58;;;;;;;6.65;3.42;;;;;;;;;;5104629;28;20084;-76
2023/01/11 13:05:47;;;;;;;4.43;3.17;;;;;;;;;;5105232;28;20042;-76
2023/01/11 13:08:42;;;;;;;7.28;3.65;;;;;;;;;;5107462;28;20045;-75
2023/01/11 13:11:35;;;;;;;9.23;4.55;;;;;;;;;;5106389;28;20440;-77
2023/01/11 13:14:39;;;;;;;5.95;4.57;;;;;;;;;;5116847;28;20051;-75
2023/01/11 13:17:31;;;;;;;7.50;4.30;;;;;;;;;;5120287;28;20051;-77
2023/01/11 13:20:17;;;;;;;6.47;4.38;;;;;;;;;;5122489;28;20024;-77
2023/01/11 13:23:12;;;;;;;10.13;5.10;;;;;;;;;;5117931;28;20015;-74
2023/01/11 13:26:00;;;;;;;7.40;4.40;;;;;;;;;;5119662;28;20024;-78
2023/01/11 13:28:49;;;;;;;8.30;4.50;;;;;;;;;;5120893;28;20007;-76
2023/01/11 13:31:35;;;;;;;9.50;5.53;;;;;;;;;;5101548;28;20012;-77
2023/01/11 13:34:20;;;;;;;9.73;5.60;;;;;;;;;;5100197;28;20027;-77
2023/01/11 13:37:18;;;;;;;7.93;5.20;;;;;;;;;;5115160;28;20063;-75
2023/01/11 13:40:16;;;;;;;8.88;5.95;;;;;;;;;;5101210;28;20443;-77
2023/01/11 13:43:20;;;;;;;10.57;4.88;;;;;;;;;;5114418;28;20355;-76
2023/01/11 13:46:26;;;;;;;12.13;6.35;;;;;;;;;;5114746;28;20112;-78
2023/01/11 13:49:30;;;;;;;13.00;7.00;;;;;;;;;;5079086;28;20052;-73
2023/01/11 13:52:16;;;;;;;15.68;10.27;;;;;;;;;;5115504;28;20356;-75
2023/01/11 13:55:16;;;;;;;12.07;6.80;;;;;;;;;;5115640;28;20020;-75
2023/01/11 13:58:04;;;;;;;11.98;7.53;;;;;;;;;;5115697;28;20035;-75
2023/01/11 14:00:54;;;;;;;19.20;12.55;;;;;;;;;;5117534;28;20035;-75
2023/01/11 14:03:42;;;;;;;15.68;8.57;;;;;;;;;;5116136;28;20511;-75
2023/01/11 14:06:41;;;;;;;15.45;9.13;;;;;;;;;;5115014;28;20034;-75
2023/01/11 14:09:38;;;;;;;12.63;8.02;;;;;;;;;;5115613;28;20026;-76
2023/01/11 14:12:42;;;;;;;13.65;8.18;;;;;;;;;;5103361;28;20019;-76
2023/01/11 14:15:30;;;;;;;14.63;8.48;;;;;;;;;;5115149;28;20021;-76
2023/01/11 14:18:21;;;;;;;18.13;8.25;;;;;;;;;;5105478;28;20500;-76
2023/01/11 14:21:06;;;;;;;16.38;8.38;;;;;;;;;;5122293;28;20027;-76
2023/01/11 14:23:53;;;;;;;17.80;10.25;;;;;;;;;;5119094;28;20049;-77
2023/01/11 14:26:45;;;;;;;20.90;10.52;;;;;;;;;;5119144;28;20359;-75
2023/01/11 14:29:57;;;;;;;17.63;9.45;;;;;;;;;;5120007;28;20027;-77
2023/01/11 14:32:51;;;;;;;21.75;10.88;;;;;;;;;;5119502;28;20436;-76
2023/01/11 14:35:37;;;;;;;21.17;11.02;;;;;;;;;;5091080;28;20428;-76
2023/01/11 14:38:26;;;;;;;19.42;11.38;;;;;;;;;;5118273;28;20067;-74
2023/01/11 14:41:11;;;;;;;21.88;10.95;;;;;;;;;;5118378;28;20383;-76
2023/01/11 14:44:15;;;;;;;23.70;12.80;;;;;;;;;;5105434;28;20438;-75
2023/01/11 14:47:10;;;;;;;78.20;37.67;;;;;;;;;;5103562;28;20053;-76
2023/01/11 14:50:07;;;;;;;27.65;14.30;;;;;;;;;;5097730;28;20108;-76
2023/01/11 14:52:57;;;;;;;25.77;13.10;;;;;;;;;;5117031;28;20110;-75
2023/01/11 14:55:46;;;;;;;40.47;19.05;;;;;;;;;;5103148;28;20051;-75
2023/01/11 14:58:32;;;;;;;33.05;14.55;;;;;;;;;;5108864;28;20099;-76
2023/01/11 15:01:18;;;;;;;36.00;14.75;;;;;;;;;;5120232;28;20104;-75
2023/01/11 15:04:04;;;;;;;40.00;17.63;;;;;;;;;;5104061;28;20037;-72
2023/01/11 15:06:53;;;;;;;34.58;16.55;;;;;;;;;;5117350;28;20098;-74
2023/01/11 15:09:55;;;;;;;40.05;19.20;;;;;;;;;;5102027;28;20501;-75
2023/01/11 15:12:40;;;;;;;37.53;16.30;;;;;;;;;;5117051;28;20147;-74
2023/01/11 15:18:40;;;;;;;43.65;20.55;;;;;;;;;;5119152;28;20046;-77
2023/01/11 15:21:26;;;;;;;46.60;18.13;;;;;;;;;;5103318;28;20019;-75
2023/01/11 15:24:22;;;;;;;34.65;16.52;;;;;;;;;;5119958;28;20032;-74
2023/01/11 15:27:25;;;;;;;32.92;17.15;;;;;;;;;;5102299;28;20107;-74
2023/01/11 15:30:29;;;;;;;37.88;15.73;;;;;;;;;;5116731;28;20015;-76
2023/01/11 15:33:17;;;;;;;45.33;20.08;;;;;;;;;;5118993;28;20019;-75
2023/01/11 15:36:05;;;;;;;39.15;16.67;;;;;;;;;;5118250;28;20034;-75
2023/01/11 15:39:02;;;;;;;37.40;17.05;;;;;;;;;;5116535;28;20019;-76
2023/01/11 15:42:03;;;;;;;46.50;18.15;;;;;;;;;;5117524;28;20023;-75
2023/01/11 15:45:03;;;;;;;36.45;17.48;;;;;;;;;;5136943;28;20023;-75
2023/01/11 15:47:55;;;;;;;38.47;16.95;;;;;;;;;;5119439;28;20016;-75
2023/01/11 15:51:00;;;;;;;34.00;17.20;;;;;;;;;;5118213;28;20098;-76
2023/01/11 15:54:06;;;;;;;30.35;15.48;;;;;;;;;;5129188;28;20087;-75
2023/01/11 15:57:11;;;;;;;38.33;17.27;;;;;;;;;;5117615;28;20348;-75
2023/01/11 16:00:21;;;;;;;41.63;15.40;;;;;;;;;;5102175;28;20103;-75
2023/01/11 16:03:06;;;;;;;29.90;15.30;;;;;;;;;;5116775;28;20012;-75
2023/01/11 16:06:11;;;;;;;35.80;16.10;;;;;;;;;;5116476;28;20023;-75
2023/01/11 16:08:59;;;;;;;39.15;18.27;;;;;;;;;;5115103;28;20041;-75
2023/01/11 16:12:00;;;;;;;38.90;16.77;;;;;;;;;;5115998;28;20035;-75
2023/01/11 16:14:49;;;;;;;29.67;14.77;;;;;;;;;;5101616;28;20016;-76
2023/01/11 16:17:38;;;;;;;33.45;15.38;;;;;;;;;;5116419;28;20019;-74
2023/01/11 16:20:25;;;;;;;28.15;13.40;;;;;;;;;;5116999;28;20448;-75
2023/01/11 16:23:17;;;;;;;29.33;11.98;;;;;;;;;;5102156;28;20128;-73
2023/01/11 16:26:03;;;;;;;22.20;10.93;;;;;;;;;;5129242;28;20023;-73
2023/01/11 16:28:55;;;;;;;25.05;13.07;;;;;;;;;;5131543;28;20043;-74
2023/01/11 16:32:00;;;;;;;23.73;12.48;;;;;;;;;;5117068;28;20024;-75
2023/01/11 16:34:49;;;;;;;23.90;12.82;;;;;;;;;;5101635;28;20016;-74
2023/01/11 16:37:40;;;;;;;28.33;13.48;;;;;;;;;;5116802;28;20423;-73
2023/01/11 16:40:29;;;;;;;29.60;15.13;;;;;;;;;;5100763;28;20072;-76
2023/01/11 16:43:23;;;;;;;29.63;14.07;;;;;;;;;;5101615;28;20084;-73
2023/01/11 16:46:15;;;;;;;32.85;15.05;;;;;;;;;;5099519;28;20080;-74
2023/01/11 16:49:07;;;;;;;27.27;12.70;;;;;;;;;;5101742;28;20084;-73
2023/01/11 16:51:55;;;;;;;26.58;12.38;;;;;;;;;;5116052;28;20023;-74
2023/01/11 16:54:41;;;;;;;24.05;11.80;;;;;;;;;;5116278;28;20038;-73
2023/01/11 16:57:29;;;;;;;21.80;11.88;;;;;;;;;;5101612;28;20083;-73
2023/01/11 17:00:34;;;;;;;27.08;11.48;;;;;;;;;;5100404;28;20075;-74
2023/01/11 17:03:22;;;;;;;22.60;11.35;;;;;;;;;;5114343;28;20023;-74
2023/01/11 17:06:08;;;;;;;23.70;11.18;;;;;;;;;;5100165;28;20024;-75
2023/01/11 17:08:55;;;;;;;22.70;10.70;;;;;;;;;;5115414;28;20020;-74
2023/01/11 17:11:45;;;;;;;20.27;11.15;;;;;;;;;;5099743;28;20031;-73